aviador You're here:

LYKV Decoded Metar

KRALJEVO/LADEVCI in SERBIA
Report Time2018-07-23 07:30:00
UTC Time2018-07-23 07:46:42
Flight Rules vfr VFR
WindVRB at 01 kt
Visibility8000 m
Phenomena:N/A
Clouds:Scattered 010 Hf
Broken 030 Hf
Expected CloudBase > 400 ft AGL from Temp-Dew spread
Ceiling3,000 ft
Temp20°C (ISA +6)
Dew Point19°C (94% RH)
QNH1010 hPa
Density Alt1,834 ft
Elevation694 ft
Report Wrong Elevation
Raw Report
METAR LYKV 230730Z VRB01KT 8000 SCT010 BKN030 20/19 Q1010 NOSIG=

Extra information for LYKV:More info

Metar Taf Metar & Taf Last 4 Metars F.Rules Stats Wind Profile Meteogram Temp Stats Airport Information Weather charts Add Link Nearby VenuesMetar ALERT Operation Metar Decoded Social comments